Accueil
METAR-TAF:

METAR-TAF

Aéroports :

Charlevoix Municipal Airport

Charlevoix, Michigan, États-Unis

latitude: 45-18-17N, longitude: 085-16-29W, altitude: 204 m

Observation

Le bulletin a été fait il y a 24 minutes, à 07:15 UTC
Vent 4 kt de est/nord-est
Température 12°C
Humidité 94%
Pression 1010 hPa
Visibilité: 16.1 km
Nuages épars à une hauteur de 1300 ft
Nuages fragmentés à une hauteur de 1800 ft
Ciel couvert à une hauteur de 2700 ft

METAR: KCVX 210715Z AUTO 07004KT 10SM SCT013 BKN018 OVC027 12/11 A2982 RMK AO2 T01180110

Heure: 03:39 (07:39 UTC)


TAF: absent

Observations et prévisions météorologiques de plus de 4000 aéroports (messages METAR et TAF).

Les stations disponibles sont représentées par des disques jaunes et rouges sur la carte.

Passer la souris dessus pour voir le nom de la station.

Cliquer dessus pour voir les observations et prévisions météorologiques.

Pour changer de carte: cliquez sur les boutons verts avec une croix noire pour zoomer, sur le bouton vert avec un tiret pour effectuer un zoom arrière, ou sur les flèches vertes pour les cartes adjacentes.


METAR-TAF: